createdAt,value
2022-08-28T00:02:26.102Z,4.38
2022-08-28T00:04:53.249Z,3.10
2022-08-28T00:07:19.675Z,8.20
2022-08-28T00:09:46.493Z,4.37
2022-08-28T00:12:13.030Z,7.03
2022-08-28T00:14:39.567Z,5.23
2022-08-28T00:17:06.336Z,4.30
2022-08-28T00:19:38.516Z,6.03
2022-08-28T00:22:05.935Z,6.93
2022-08-28T00:24:33.577Z,5.47
2022-08-28T00:27:18.650Z,3.33
2022-08-28T00:29:45.292Z,4.40
2022-08-28T00:32:11.851Z,5.67
2022-08-28T00:34:38.988Z,8.17
2022-08-28T00:37:06.058Z,5.27
2022-08-28T00:39:32.985Z,6.73
2022-08-28T00:41:59.502Z,11.80
2022-08-28T00:44:28.105Z,4.90
2022-08-28T00:46:58.458Z,5.00
2022-08-28T00:49:30.985Z,9.02
2022-08-28T00:52:05.875Z,5.90
2022-08-28T00:54:36.555Z,7.55
2022-08-28T00:57:07.511Z,4.13
2022-08-28T00:59:36.241Z,6.27
2022-08-28T01:02:03.465Z,5.07
2022-08-28T01:04:32.260Z,3.90
2022-08-28T01:07:02.305Z,4.97
2022-08-28T01:09:32.053Z,5.70
2022-08-28T01:12:03.314Z,4.60
2022-08-28T01:14:32.405Z,5.40
2022-08-28T01:16:59.250Z,4.27
2022-08-28T01:19:38.259Z,5.50
2022-08-28T01:22:26.304Z,5.27
2022-08-28T01:24:54.457Z,6.90
2022-08-28T01:27:22.534Z,4.47
2022-08-28T01:29:51.649Z,9.60
2022-08-28T01:32:37.746Z,5.27
2022-08-28T01:35:09.599Z,4.13
2022-08-28T01:37:37.002Z,6.67
2022-08-28T01:40:06.299Z,6.60
2022-08-28T01:42:41.376Z,5.43
2022-08-28T01:45:11.290Z,5.33
2022-08-28T01:47:39.585Z,6.77
2022-08-28T01:50:07.931Z,7.23
2022-08-28T01:52:34.453Z,4.60
2022-08-28T01:55:01.410Z,4.00
2022-08-28T01:57:32.029Z,5.77
2022-08-28T01:59:58.471Z,4.10
2022-08-28T02:02:25.154Z,2.97
2022-08-28T02:04:53.876Z,6.47
2022-08-28T02:07:20.578Z,6.30
2022-08-28T02:09:47.115Z,10.70
2022-08-28T02:12:13.619Z,3.80
2022-08-28T02:14:40.357Z,5.93
2022-08-28T02:17:07.102Z,5.87
2022-08-28T02:19:33.610Z,5.27
2022-08-28T02:22:00.052Z,4.10
2022-08-28T02:24:27.750Z,6.73
2022-08-28T02:26:54.405Z,7.17
2022-08-28T02:29:21.006Z,7.07
2022-08-28T02:31:47.393Z,6.30
2022-08-28T02:34:13.792Z,4.77
2022-08-28T02:36:42.147Z,6.13
2022-08-28T02:39:09.162Z,6.00
2022-08-28T02:41:35.968Z,4.87
2022-08-28T02:44:02.684Z,3.47
2022-08-28T02:46:29.814Z,6.37
2022-08-28T02:48:56.574Z,3.83
2022-08-28T02:51:23.332Z,5.67
2022-08-28T02:53:50.590Z,6.47
2022-08-28T02:56:17.054Z,8.50
2022-08-28T02:58:44.014Z,5.97
2022-08-28T03:01:13.554Z,8.10
2022-08-28T03:03:41.283Z,3.70
2022-08-28T03:06:09.102Z,2.83
2022-08-28T03:08:35.565Z,7.07
2022-08-28T03:11:02.134Z,9.13
2022-08-28T03:13:29.978Z,7.60
2022-08-28T03:15:57.167Z,9.20
2022-08-28T03:18:25.571Z,6.47
2022-08-28T03:20:52.990Z,6.43
2022-08-28T03:23:28.758Z,6.77
2022-08-28T03:26:09.198Z,5.17
2022-08-28T03:28:41.990Z,6.47
2022-08-28T03:31:11.093Z,5.20
2022-08-28T03:33:37.988Z,5.63
2022-08-28T03:36:10.993Z,5.93
2022-08-28T03:38:37.545Z,4.93
2022-08-28T03:41:04.077Z,6.40
2022-08-28T03:43:31.569Z,5.70
2022-08-28T03:46:03.030Z,6.73
2022-08-28T03:48:38.794Z,5.40
2022-08-28T03:51:11.790Z,6.53
2022-08-28T03:53:39.658Z,7.03
2022-08-28T03:56:12.114Z,3.93
2022-08-28T03:58:39.745Z,4.53
2022-08-28T04:01:07.460Z,4.67
2022-08-28T04:03:34.231Z,5.43
2022-08-28T04:06:01.569Z,4.23
2022-08-28T04:08:29.381Z,4.97
2022-08-28T04:10:56.418Z,6.10
2022-08-28T04:13:23.355Z,4.03
2022-08-28T04:16:01.010Z,6.97
2022-08-28T04:18:28.619Z,6.87
2022-08-28T04:21:03.639Z,7.33
2022-08-28T04:23:30.357Z,9.20
2022-08-28T04:25:56.820Z,7.23
2022-08-28T04:28:24.280Z,10.90
2022-08-28T04:30:55.234Z,8.03
2022-08-28T04:33:23.091Z,8.23
2022-08-28T04:35:49.561Z,5.73
2022-08-28T04:38:16.676Z,4.63
2022-08-28T04:40:43.184Z,9.77
2022-08-28T04:43:10.311Z,8.50
2022-08-28T04:45:44.492Z,5.93
2022-08-28T04:48:13.771Z,8.70
2022-08-28T04:50:49.828Z,7.60
2022-08-28T04:53:18.668Z,7.80
2022-08-28T04:55:54.866Z,7.67
2022-08-28T04:58:23.975Z,10.57
2022-08-28T05:00:53.460Z,9.07
2022-08-28T05:03:20.870Z,8.37
2022-08-28T05:05:50.453Z,9.23
2022-08-28T05:08:19.524Z,7.10
2022-08-28T05:10:47.109Z,8.93
2022-08-28T05:13:15.554Z,10.33
2022-08-28T05:15:44.722Z,12.37
2022-08-28T05:18:12.143Z,8.73
2022-08-28T05:20:40.384Z,8.83
2022-08-28T05:23:09.315Z,7.77
2022-08-28T05:25:44.273Z,10.13
2022-08-28T05:28:12.457Z,10.30
2022-08-28T05:30:40.917Z,9.63
2022-08-28T05:33:08.803Z,9.67
2022-08-28T05:35:38.942Z,11.37
2022-08-28T05:38:06.762Z,9.47
2022-08-28T05:40:33.662Z,11.00
2022-08-28T05:43:00.449Z,8.23
2022-08-28T05:45:26.840Z,10.40
2022-08-28T05:47:53.510Z,7.07
2022-08-28T05:50:20.183Z,8.53
2022-08-28T05:52:47.389Z,9.60
2022-08-28T05:55:13.902Z,8.60
2022-08-28T05:57:41.337Z,10.93
2022-08-28T06:00:13.796Z,11.03
2022-08-28T06:02:41.918Z,7.87
2022-08-28T06:05:09.592Z,10.73
2022-08-28T06:07:41.168Z,10.93
2022-08-28T06:10:10.554Z,13.23
2022-08-28T06:12:37.898Z,11.93
2022-08-28T06:15:05.493Z,8.67
2022-08-28T06:17:31.839Z,13.47
2022-08-28T06:19:58.513Z,12.27
2022-08-28T06:22:25.694Z,8.23
2022-08-28T06:24:52.185Z,7.23
2022-08-28T06:27:18.770Z,10.47
2022-08-28T06:29:45.894Z,12.20
2022-08-28T06:32:12.976Z,9.63
2022-08-28T06:34:39.500Z,10.87
2022-08-28T06:37:06.034Z,10.13
2022-08-28T06:39:32.597Z,10.60
2022-08-28T06:41:59.099Z,11.13
2022-08-28T06:44:25.673Z,13.07
2022-08-28T06:46:54.288Z,11.47
2022-08-28T06:49:21.534Z,7.30
2022-08-28T06:51:48.517Z,11.07
2022-08-28T06:54:22.282Z,12.70
2022-08-28T06:56:49.669Z,10.77
2022-08-28T06:59:16.026Z,15.00
2022-08-28T07:01:42.642Z,10.30
2022-08-28T07:04:12.020Z,12.63
2022-08-28T07:06:41.579Z,7.50
2022-08-28T07:09:11.221Z,15.83
2022-08-28T07:11:39.406Z,12.03
2022-08-28T07:14:06.670Z,11.07
2022-08-28T07:16:38.226Z,12.47
2022-08-28T07:19:06.581Z,8.87
2022-08-28T07:21:39.619Z,12.93
2022-08-28T07:24:08.447Z,8.53
2022-08-28T07:26:35.907Z,8.40
2022-08-28T07:29:10.861Z,8.90
2022-08-28T07:31:40.925Z,9.43
2022-08-28T07:34:09.441Z,9.80
2022-08-28T07:36:36.316Z,10.53
2022-08-28T07:39:03.259Z,11.67
2022-08-28T07:41:31.989Z,8.07
2022-08-28T07:44:17.781Z,8.13
2022-08-28T07:46:45.461Z,8.53
2022-08-28T07:49:15.477Z,8.33
2022-08-28T07:51:42.089Z,11.73
2022-08-28T07:54:15.710Z,12.67
2022-08-28T07:56:44.551Z,10.03
2022-08-28T07:59:12.202Z,9.83
2022-08-28T08:01:46.574Z,11.63
2022-08-28T08:04:15.823Z,9.47
2022-08-28T08:06:43.352Z,9.83
2022-08-28T08:09:13.032Z,12.73
2022-08-28T08:11:39.549Z,9.53
2022-08-28T08:14:06.128Z,9.87
2022-08-28T08:16:35.882Z,10.30
2022-08-28T08:19:03.404Z,11.60
2022-08-28T08:21:30.656Z,12.93
2022-08-28T08:23:58.319Z,10.43
2022-08-28T08:26:28.191Z,8.50
2022-08-28T08:28:55.989Z,7.40
2022-08-28T08:31:29.502Z,9.73
2022-08-28T08:33:58.586Z,7.30
2022-08-28T08:36:26.741Z,8.67
2022-08-28T08:38:59.877Z,13.67
2022-08-28T08:41:30.322Z,7.57
2022-08-28T08:43:59.289Z,11.37
2022-08-28T08:46:32.763Z,8.37
2022-08-28T08:49:02.845Z,9.60
2022-08-28T08:51:41.814Z,8.70
2022-08-28T08:54:19.052Z,9.27
2022-08-28T08:56:47.189Z,8.17
2022-08-28T08:59:23.133Z,11.30
2022-08-28T09:02:01.237Z,9.67
2022-08-28T09:05:04.792Z,10.30
2022-08-28T09:07:49.224Z,9.27
2022-08-28T09:10:19.684Z,8.17
2022-08-28T09:12:50.094Z,8.93
2022-08-28T09:15:38.816Z,7.00
2022-08-28T09:18:28.311Z,11.60
2022-08-28T09:20:58.227Z,8.17
2022-08-28T09:23:29.797Z,12.17
2022-08-28T09:25:56.609Z,9.57
2022-08-28T09:28:36.890Z,7.67
2022-08-28T09:31:08.654Z,10.27
2022-08-28T09:33:41.767Z,7.60
2022-08-28T09:36:29.207Z,11.60
2022-08-28T09:39:14.228Z,10.07
2022-08-28T09:42:08.121Z,6.90
2022-08-28T09:45:09.719Z,10.60
2022-08-28T09:47:46.486Z,7.33
2022-08-28T09:50:37.676Z,5.43
2022-08-28T09:53:10.071Z,7.87
2022-08-28T09:55:43.978Z,8.63
2022-08-28T09:58:10.701Z,10.43
2022-08-28T10:00:49.549Z,10.93
2022-08-28T10:03:23.499Z,9.47
2022-08-28T10:06:22.881Z,10.87
2022-08-28T10:09:03.987Z,10.40
2022-08-28T10:12:00.173Z,9.23
2022-08-28T10:14:42.763Z,6.20
2022-08-28T10:17:31.586Z,9.53
2022-08-28T10:20:36.608Z,4.37
2022-08-28T10:23:17.737Z,9.30
2022-08-28T10:25:54.735Z,6.67
2022-08-28T10:28:48.446Z,8.80
2022-08-28T10:31:25.688Z,8.53
2022-08-28T10:34:11.189Z,8.70
2022-08-28T10:36:37.873Z,8.73
2022-08-28T10:39:19.640Z,10.67
2022-08-28T10:41:51.097Z,6.40
2022-08-28T10:44:49.777Z,6.67
2022-08-28T10:47:21.161Z,7.07
2022-08-28T10:49:53.317Z,7.33
2022-08-28T10:52:49.632Z,8.80
2022-08-28T10:55:43.250Z,8.33
2022-08-28T10:58:24.869Z,7.73
2022-08-28T11:01:01.047Z,5.43
2022-08-28T11:03:34.705Z,10.70
2022-08-28T11:06:11.311Z,7.30
2022-08-28T11:08:39.586Z,6.13
2022-08-28T11:11:12.707Z,8.50
2022-08-28T11:13:53.420Z,8.20
2022-08-28T11:16:24.039Z,6.57
2022-08-28T11:19:22.553Z,9.40
2022-08-28T11:21:56.969Z,9.43
2022-08-28T11:24:27.176Z,6.27
2022-08-28T11:27:48.151Z,8.57
2022-08-28T11:30:17.074Z,8.50
2022-08-28T11:32:50.778Z,6.43
2022-08-28T11:35:20.215Z,7.03
2022-08-28T11:37:49.565Z,4.53
2022-08-28T11:40:40.766Z,6.47
2022-08-28T11:43:16.538Z,7.40
2022-08-28T11:45:46.741Z,6.83
2022-08-28T11:48:23.189Z,6.32
2022-08-28T11:50:56.816Z,5.13
2022-08-28T11:53:52.240Z,7.27
2022-08-28T11:56:30.587Z,5.63
2022-08-28T11:59:19.126Z,4.95
2022-08-28T12:01:46.239Z,5.30
2022-08-28T12:04:20.334Z,12.13
2022-08-28T12:06:54.510Z,6.45
2022-08-28T12:09:41.241Z,3.67
2022-08-28T12:12:45.605Z,6.40
2022-08-28T12:15:28.043Z,5.65
2022-08-28T12:18:09.991Z,5.15
2022-08-28T12:21:06.170Z,5.82
2022-08-28T12:23:39.644Z,5.30
2022-08-28T12:26:38.800Z,6.68
2022-08-28T12:29:34.750Z,5.97
2022-08-28T12:32:29.268Z,6.75
2022-08-28T12:34:58.674Z,7.45
2022-08-28T12:37:52.722Z,7.15
2022-08-28T12:40:50.225Z,6.28
2022-08-28T12:43:46.495Z,5.70
2022-08-28T12:46:23.856Z,7.88
2022-08-28T12:48:55.119Z,6.32
2022-08-28T12:51:27.619Z,3.53
2022-08-28T12:54:02.987Z,6.45
2022-08-28T12:56:34.087Z,5.72
2022-08-28T12:59:27.594Z,4.35
2022-08-28T13:01:54.941Z,2.75
2022-08-28T13:04:28.270Z,5.40
2022-08-28T13:07:03.230Z,3.30
2022-08-28T13:09:29.697Z,5.10
2022-08-28T13:11:56.074Z,5.65
2022-08-28T13:14:43.505Z,6.78
2022-08-28T13:17:11.757Z,6.53
2022-08-28T13:19:39.068Z,5.93
2022-08-28T13:22:09.200Z,6.00
2022-08-28T13:24:35.541Z,4.60
2022-08-28T13:27:16.196Z,6.32
2022-08-28T13:29:59.753Z,4.50
2022-08-28T13:32:28.645Z,4.07
2022-08-28T13:35:28.614Z,8.63
2022-08-28T13:37:58.402Z,7.97
2022-08-28T13:41:05.976Z,5.65
2022-08-28T13:43:20.250Z,3.85
2022-08-28T13:45:49.024Z,5.25
2022-08-28T13:48:21.247Z,5.63
2022-08-28T13:50:52.977Z,4.78
2022-08-28T13:53:20.819Z,3.35
2022-08-28T13:55:49.188Z,8.00
2022-08-28T13:58:16.090Z,5.35
2022-08-28T14:00:48.230Z,5.47
2022-08-28T14:03:38.346Z,6.68
2022-08-28T14:06:04.817Z,7.70
2022-08-28T14:08:31.323Z,5.07
2022-08-28T14:10:57.809Z,3.72
2022-08-28T14:13:27.416Z,7.28
2022-08-28T14:15:55.778Z,4.93
2022-08-28T14:18:23.206Z,6.57
2022-08-28T14:20:49.604Z,4.15
2022-08-28T14:23:16.195Z,4.60
2022-08-28T14:25:44.532Z,7.22
2022-08-28T14:28:12.469Z,8.55
2022-08-28T14:30:47.667Z,4.30
2022-08-28T14:33:16.750Z,5.00
2022-08-28T14:35:43.270Z,4.97
2022-08-28T14:38:10.759Z,5.35
2022-08-28T14:40:41.704Z,3.33
2022-08-28T14:43:12.865Z,2.63
2022-08-28T14:45:47.807Z,4.75
2022-08-28T14:48:15.150Z,4.05
2022-08-28T14:50:43.884Z,4.57
2022-08-28T14:53:11.159Z,3.55
2022-08-28T14:55:45.017Z,7.78
2022-08-28T14:58:12.662Z,3.55
2022-08-28T15:00:42.096Z,4.07
2022-08-28T15:03:09.232Z,7.28
2022-08-28T15:05:35.907Z,6.95
2022-08-28T15:08:03.210Z,5.10
2022-08-28T15:10:29.810Z,3.58
2022-08-28T15:12:56.165Z,5.80
2022-08-28T15:15:22.530Z,8.20
2022-08-28T15:17:49.253Z,8.05
2022-08-28T15:20:15.871Z,4.05
2022-08-28T15:22:42.362Z,9.10
2022-08-28T15:25:09.132Z,6.25
2022-08-28T15:27:36.235Z,5.47
2022-08-28T15:30:02.774Z,5.63
2022-08-28T15:32:29.307Z,5.85
2022-08-28T15:34:55.819Z,4.25
2022-08-28T15:37:22.493Z,4.40
2022-08-28T15:40:07.978Z,3.60
2022-08-28T15:42:34.465Z,2.40
2022-08-28T15:45:00.942Z,5.40
2022-08-28T15:47:27.707Z,5.18
2022-08-28T15:49:55.960Z,4.57
2022-08-28T15:52:24.399Z,5.88
2022-08-28T15:54:50.912Z,3.10
2022-08-28T15:57:18.034Z,4.82
2022-08-28T15:59:49.798Z,2.88
2022-08-28T16:02:25.019Z,4.60
2022-08-28T16:04:53.639Z,3.33
2022-08-28T16:07:22.210Z,3.28
2022-08-28T16:09:49.507Z,4.18
2022-08-28T16:12:16.532Z,5.95
2022-08-28T16:14:43.698Z,6.88
2022-08-28T16:17:11.477Z,3.85
2022-08-28T16:19:42.569Z,5.88
2022-08-28T16:22:10.549Z,4.45
2022-08-28T16:24:37.199Z,4.13
2022-08-28T16:27:04.490Z,2.72
2022-08-28T16:29:35.224Z,2.22
2022-08-28T16:32:03.330Z,4.88
2022-08-28T16:34:32.655Z,4.35
2022-08-28T16:36:59.725Z,6.18
2022-08-28T16:39:26.557Z,7.55
2022-08-28T16:41:53.173Z,2.83
2022-08-28T16:44:22.001Z,4.18
2022-08-28T16:46:48.988Z,5.22
2022-08-28T16:49:15.613Z,4.28
2022-08-28T16:51:42.005Z,3.35
2022-08-28T16:54:08.655Z,6.40
2022-08-28T16:56:35.550Z,4.95
2022-08-28T16:59:02.423Z,3.90
2022-08-28T17:01:29.072Z,2.92
2022-08-28T17:03:55.938Z,7.40
2022-08-28T17:06:25.976Z,2.78
2022-08-28T17:08:56.901Z,2.22
2022-08-28T17:11:27.837Z,3.55
2022-08-28T17:13:55.433Z,3.92
2022-08-28T17:16:23.675Z,4.90
2022-08-28T17:18:52.675Z,5.18
2022-08-28T17:21:39.124Z,4.82
2022-08-28T17:24:06.848Z,3.40
2022-08-28T17:26:33.474Z,4.70
2022-08-28T17:29:00.112Z,4.15
2022-08-28T17:31:26.621Z,4.75
2022-08-28T17:33:53.375Z,5.18
2022-08-28T17:36:25.629Z,4.55
2022-08-28T17:39:00.415Z,2.70
2022-08-28T17:41:27.682Z,4.95
2022-08-28T17:43:54.104Z,5.90
2022-08-28T17:46:20.646Z,7.32
2022-08-28T17:48:55.800Z,6.18
2022-08-28T17:51:42.869Z,3.08
2022-08-28T17:54:15.558Z,2.78
2022-08-28T17:56:42.412Z,4.63
2022-08-28T17:59:10.146Z,5.20
2022-08-28T18:01:38.327Z,4.63
2022-08-28T18:04:05.530Z,4.13
2022-08-28T18:06:32.815Z,4.25
2022-08-28T18:08:59.305Z,6.45
2022-08-28T18:11:25.957Z,3.33
2022-08-28T18:13:52.481Z,3.10
2022-08-28T18:16:18.983Z,4.10
2022-08-28T18:18:45.788Z,4.88
2022-08-28T18:21:13.849Z,2.45
2022-08-28T18:23:40.850Z,8.10
2022-08-28T18:26:08.539Z,3.88
2022-08-28T18:28:35.298Z,4.25
2022-08-28T18:31:02.851Z,5.05
2022-08-28T18:33:29.836Z,3.33
2022-08-28T18:35:56.655Z,7.05
2022-08-28T18:38:27.971Z,6.05
2022-08-28T18:40:55.522Z,6.30
2022-08-28T18:43:22.635Z,3.13
2022-08-28T18:45:49.831Z,5.90
2022-08-28T18:48:16.675Z,5.18
2022-08-28T18:50:46.430Z,5.68
2022-08-28T18:53:17.656Z,3.50
2022-08-28T18:55:45.975Z,6.32
2022-08-28T18:58:15.342Z,3.95
2022-08-28T19:00:42.669Z,10.73
2022-08-28T19:03:10.055Z,6.23
2022-08-28T19:05:37.839Z,4.27
2022-08-28T19:08:04.492Z,9.17
2022-08-28T19:10:34.326Z,7.37
2022-08-28T19:13:02.522Z,3.47
2022-08-28T19:15:29.537Z,5.00
2022-08-28T19:17:55.994Z,7.40
2022-08-28T19:20:22.652Z,5.40
2022-08-28T19:22:49.839Z,6.43
2022-08-28T19:25:28.217Z,4.47
2022-08-28T19:27:56.398Z,2.80
2022-08-28T19:30:26.114Z,4.10
2022-08-28T19:32:52.741Z,3.50
2022-08-28T19:35:19.601Z,2.70
2022-08-28T19:37:46.505Z,4.63
2022-08-28T19:40:13.849Z,4.87
2022-08-28T19:42:40.878Z,3.20
2022-08-28T19:45:10.359Z,3.77
2022-08-28T19:47:36.928Z,1.97
2022-08-28T19:50:05.274Z,5.23
2022-08-28T19:52:33.301Z,4.57
2022-08-28T19:55:01.004Z,3.87
2022-08-28T19:57:27.479Z,2.87
2022-08-28T19:59:54.005Z,5.87
2022-08-28T20:02:22.826Z,3.83
2022-08-28T20:04:50.218Z,2.60
2022-08-28T20:07:17.030Z,2.97
2022-08-28T20:09:44.098Z,4.63
2022-08-28T20:12:10.541Z,2.90
2022-08-28T20:14:38.805Z,5.07
2022-08-28T20:17:08.470Z,3.73
2022-08-28T20:19:34.988Z,9.37
2022-08-28T20:22:01.587Z,4.10
2022-08-28T20:24:28.019Z,7.50
2022-08-28T20:26:54.962Z,2.70
2022-08-28T20:29:24.019Z,5.33
2022-08-28T20:31:50.985Z,5.30
2022-08-28T20:34:19.238Z,6.53
2022-08-28T20:36:46.044Z,3.67
2022-08-28T20:39:12.780Z,4.63
2022-08-28T20:41:41.073Z,4.97
2022-08-28T20:44:09.500Z,3.80
2022-08-28T20:46:40.738Z,3.20
2022-08-28T20:49:09.887Z,3.40
2022-08-28T20:51:55.286Z,2.23
2022-08-28T20:54:34.377Z,6.00
2022-08-28T20:57:03.955Z,5.50
2022-08-28T20:59:37.174Z,3.73
2022-08-28T21:02:13.341Z,2.87
2022-08-28T21:04:41.658Z,3.13
2022-08-28T21:07:08.860Z,6.73
2022-08-28T21:10:04.876Z,3.53
2022-08-28T21:12:22.526Z,2.37
2022-08-28T21:14:52.268Z,3.40
2022-08-28T21:17:22.678Z,3.53
2022-08-28T21:19:55.711Z,4.17
2022-08-28T21:22:22.425Z,6.17
2022-08-28T21:24:48.875Z,5.17
2022-08-28T21:27:15.494Z,3.57
2022-08-28T21:29:45.185Z,6.10
2022-08-28T21:32:11.599Z,4.50
2022-08-28T21:34:38.082Z,5.40
2022-08-28T21:37:04.589Z,5.13
2022-08-28T21:39:31.047Z,4.83
2022-08-28T21:41:57.799Z,5.93
2022-08-28T21:44:24.903Z,5.53
2022-08-28T21:46:51.303Z,2.60
2022-08-28T21:49:17.866Z,6.40
2022-08-28T21:51:44.277Z,7.40
2022-08-28T21:54:10.828Z,3.40
2022-08-28T21:56:37.262Z,4.47
2022-08-28T21:59:03.966Z,3.93
2022-08-28T22:01:30.579Z,3.47
2022-08-28T22:03:57.199Z,4.17
2022-08-28T22:06:26.238Z,3.97
2022-08-28T22:08:54.346Z,6.17
2022-08-28T22:11:25.151Z,3.57
2022-08-28T22:13:52.234Z,3.73
2022-08-28T22:16:19.327Z,5.13
2022-08-28T22:18:45.814Z,4.23
2022-08-28T22:21:33.490Z,3.37
2022-08-28T22:24:00.329Z,4.10
2022-08-28T22:26:26.951Z,4.97
2022-08-28T22:28:54.037Z,4.57
2022-08-28T22:31:20.569Z,4.07
2022-08-28T22:33:47.652Z,3.13
2022-08-28T22:36:14.342Z,2.20
2022-08-28T22:38:41.223Z,5.43
2022-08-28T22:41:13.609Z,5.87
2022-08-28T22:43:39.972Z,4.20
2022-08-28T22:46:07.824Z,6.00
2022-08-28T22:48:34.796Z,5.93
2022-08-28T22:51:12.482Z,5.23
2022-08-28T22:53:41.188Z,4.53
2022-08-28T22:56:08.901Z,4.00
2022-08-28T22:58:35.353Z,3.20
2022-08-28T23:01:23.486Z,6.00
2022-08-28T23:03:50.534Z,2.30
2022-08-28T23:06:17.566Z,2.63
2022-08-28T23:08:44.192Z,4.00
2022-08-28T23:11:11.089Z,6.17
2022-08-28T23:13:37.938Z,5.23
2022-08-28T23:16:05.425Z,4.10
2022-08-28T23:18:46.294Z,5.93
2022-08-28T23:21:20.725Z,4.47
2022-08-28T23:23:47.201Z,5.20
2022-08-28T23:26:15.381Z,2.60
2022-08-28T23:28:42.204Z,4.10
2022-08-28T23:31:09.251Z,3.93
2022-08-28T23:33:35.973Z,2.83
2022-08-28T23:36:02.562Z,2.30
2022-08-28T23:38:29.006Z,4.73
2022-08-28T23:40:55.612Z,9.13
2022-08-28T23:43:23.315Z,4.70
2022-08-28T23:45:49.951Z,3.57
2022-08-28T23:48:16.893Z,2.67
2022-08-28T23:50:43.345Z,3.77
2022-08-28T23:53:10.849Z,3.77
2022-08-28T23:55:37.751Z,4.60
2022-08-28T23:58:04.923Z,3.50
